GetGPSは位置情報をもとに「Hakodate, Hokkaido 042-0952, Japan (北緯41度46分31.81秒、東経140度48分56.88秒、位置: Japan, 〒042-0952 Hokkaido, Hakodate, Takamatsuchō, 511 函館空港)」付近のTweet(ツイート)を取得しました。現在地の取得は今すぐ「GetGPS」ボタンをクリック(またはタップ)!

GetGPS [Click or Tap]

translate:
latitude: 41.77550252330288
longitude: 140.81579879120048
links: PLINK  GMAP  OSM  HOME 
popularity:  Saku,殺害予告犯福寿洋輔容疑者(9)  Saitama,@mugenorange(8)  Shinjuku City,号(6)  Nagano(5)  Seattle,#BoycottUber(5)  none,#AirPodsPro(4)  Kumamoto-shi,@hashiguchigumi(4)  Nara-shi,@wiediesta(4)  Nara-shi,#推しからあなたにクレーム(4)  Shinjuku-ku,@_gatancarol(4)  Shinjuku-ku,@bunbuunbuuunta(4)  Boydton,#WonhoBelongsToMX(4)  none(4)  Niigata-shi,@sanpuuudayo(4)  Yamagata-shi,#FGO最古のスクショ(4)  Washington,"MCR+IS+BACK"(4)  Aomori-shi,プチ・マルシェアスパム(4)  Seattle,#RIPPriyankaReddy(4)  Ashburn,"Ann+Coulter"(3)  Beijing(3)  Seattle(3)  Seattle,Testify(3)  none(2)  Osaka,フォロバ(2) 
函館空港   函館市   北海道   おんじき庭本   搭乗口   ラー  
@rjch_metar
@camellian__
@mecaota
@sasa_hnrn
@Terrys22
@sieg_papa
rjch_metar
RJCH METAR @rjch_metar
RJCH 100100Z 02004KT 9999 FEW010 SCT020 BKN060 05/05 Q1019 (37分前)
rjch_metar
RJCH METAR @rjch_metar
RJCH 100000Z 02004KT 330V040 9999 -SHRA FEW008 SCT015 BKN018 03/02 Q1019 (1時間前)
rjch_metar
RJCH METAR @rjch_metar
RJCH 092300Z 02006KT 9999 -SHRA FEW012 SCT015 BKN018 03/01 Q1019 (2時間前)
rjch_metar
RJCH METAR @rjch_metar
RJCH 092200Z 03006KT 9999 -SHRA FEW018 SCT025 BKN090 02/01 Q1019 (3時間前)
rjch_metar
RJCH METAR @rjch_metar
RJCH 092110Z 04004KT 9999 -SHRA FEW015 SCT030 BKN035 02/01 Q1019 RMK 1ST015 3CU030 5CU035 A3010 (4時間前)
rjch_metar
RJCH METAR @rjch_metar
RJCH 091715Z (cont.) TEMPO 1018/1100 4000 -SHRA BR FEW005 BKN008 (7時間前)
rjch_metar
RJCH METAR @rjch_metar
RJCH 091715Z 0918/1100 06004KT 9999 FEW008 BKN015 BECMG 0920/0922 23011KT TEMPO 0920/1000 4000 -TSRA BR FEW005 BKN008 FEW025CB (cont.) (7時間前)
rjch_metar
RJCH METAR @rjch_metar
RJCH 091113Z 0912/1018 03007KT 9999 FEW020 BKN040 TEMPO 0921/1003 4000 -SHRA BR FEW005 BKN008 FEW025CB BECMG 0922/1000 26006KT (8時間前)
rjch_metar
RJCH METAR @rjch_metar
RJCH 091100Z 05003KT 360V070 9999 FEW030 SCT070 01/M02 Q1024 (14時間前)
rjch_metar
RJCH METAR @rjch_metar
RJCH 091000Z 04007KT 9999 FEW030 SCT090 BKN100 01/M02 Q1024 (14時間前)
rjch_metar
RJCH METAR @rjch_metar
RJCH 090900Z 03004KT 350V070 9999 FEW030 BKN080 BKN100 01/M02 Q1025 (16時間前)
rjch_metar
RJCH METAR @rjch_metar
RJCH 090700Z 05004KT 9999 FEW030 SCT070 BKN100 02/M03 Q1025 (18時間前)
camellian__
亀理庵 12/6~9 函館巡礼中 @camellian__
さらば函館、また来るよ。 https://t.co/501PgbtfBT (18時間前)
rjch_metar
RJCH METAR @rjch_metar
RJCH 090600Z VRB01KT 9999 FEW030 SCT070 BKN090 03/M03 Q1026 (18時間前)
mecaota
pitoru / 決済丼運営中 @mecaota
入国 (@ 函館空港 in 函館市, 北海道) https://t.co/pRf20hbyH9 (18時間前)
camellian__
亀理庵 12/6~9 函館巡礼中 @camellian__
函館空港の土産物店にて狂気を感じる品を発見。 #いくらアイマスク https://t.co/QKEOdgd92C (18時間前)
rjch_metar
RJCH METAR @rjch_metar
RJCH 090500Z 00000KT 9999 FEW025 BKN070 03/M03 Q1026 (20時間前)
sasa_hnrn
 @sasa_hnrn
俺は (@ 函館空港 in 函館市, 北海道 w/ @yusakukim) https://t.co/DbYKjprV8H (20時間前)
rjch_metar
RJCH METAR @rjch_metar
RJCH 090400Z VRB02KT 9999 FEW025 SCT080 03/M05 Q1026 (20時間前)
Terrys22
上原哲郎 @Terrys22
函館は道路が凍ってます。 今日も張り切って行ってきます! 場所: ANA 函館空港 - Hakodate Airport https://t.co/f0Nbua6WwB (21時間前)
rjch_metar
RJCH METAR @rjch_metar
RJCH 090300Z 30004KT 270V360 9999 FEW025 SCT040 BKN080 02/M04 Q1026 (22時間前)
rjch_metar
RJCH METAR @rjch_metar
RJCH 090200Z 32004KT 290V360 9999 FEW030 SCT/// 02/M06 Q1027 (22時間前)
rjch_metar
RJCH METAR @rjch_metar
RJCH 090100Z VRB01KT 9999 FEW030 00/M06 Q1027 (1日前)
sieg_papa
Motoo Tangiku @sieg_papa
羽田空港経由で、とりあえず名古屋まで帰ります。 今日の函館は晴れていますが、気温は氷点下!寒いです。 #函館 #函館空港 #JAL https://t.co/2dR9ZDwmGk (1日前)
rjch_metar
RJCH METAR @rjch_metar
RJCH 082300Z 02006KT 9999 FEW030 M06/M10 Q1028 (1日前)
trends: 大丈夫(368133) 大好き(377238) 出川哲朗の充電(10678) 草なぎ剛(10071) 単独出演(24490) #HALO_1位(28608) 

Japan >  Hokkaido >  Hakodate

your IP: 34.225.194.144

©2019 PRNDC.COM

トップに戻る